sensor_id;sensor_type;location;lat;lon;timestamp;P1;durP1;ratioP1;P2;durP2;ratioP2
26838;SDS011;40088;51.214;6.786;2023-11-19T00:08:57;10.68;;;8.68;;
26838;SDS011;40088;51.214;6.786;2023-11-19T00:18:58;12.00;;;8.77;;
26838;SDS011;40088;51.214;6.786;2023-11-19T00:28:59;13.27;;;9.77;;
26838;SDS011;40088;51.214;6.786;2023-11-19T00:38:59;7.50;;;6.03;;
26838;SDS011;40088;51.214;6.786;2023-11-19T00:49:00;8.43;;;6.55;;
26838;SDS011;40088;51.214;6.786;2023-11-19T00:59:01;7.05;;;5.07;;
26838;SDS011;40088;51.214;6.786;2023-11-19T01:09:01;9.25;;;7.75;;
26838;SDS011;40088;51.214;6.786;2023-11-19T01:19:02;6.25;;;4.70;;
26838;SDS011;40088;51.214;6.786;2023-11-19T01:29:04;10.90;;;9.20;;
26838;SDS011;40088;51.214;6.786;2023-11-19T01:39:05;10.38;;;7.88;;
26838;SDS011;40088;51.214;6.786;2023-11-19T01:49:06;11.60;;;9.40;;
26838;SDS011;40088;51.214;6.786;2023-11-19T01:59:07;11.02;;;8.27;;
26838;SDS011;40088;51.214;6.786;2023-11-19T02:09:09;10.63;;;7.63;;
26838;SDS011;40088;51.214;6.786;2023-11-19T02:19:10;4.97;;;3.67;;
26838;SDS011;40088;51.214;6.786;2023-11-19T02:29:11;7.03;;;4.70;;
26838;SDS011;40088;51.214;6.786;2023-11-19T02:39:11;7.55;;;5.28;;
26838;SDS011;40088;51.214;6.786;2023-11-19T02:49:12;7.05;;;4.90;;
26838;SDS011;40088;51.214;6.786;2023-11-19T02:59:12;10.02;;;4.82;;
26838;SDS011;40088;51.214;6.786;2023-11-19T03:09:27;7.70;;;5.60;;
26838;SDS011;40088;51.214;6.786;2023-11-19T03:19:28;15.05;;;8.85;;
26838;SDS011;40088;51.214;6.786;2023-11-19T03:29:28;17.80;;;9.65;;
26838;SDS011;40088;51.214;6.786;2023-11-19T03:39:28;14.20;;;6.82;;
26838;SDS011;40088;51.214;6.786;2023-11-19T03:49:29;12.95;;;6.38;;
26838;SDS011;40088;51.214;6.786;2023-11-19T03:59:29;15.38;;;8.65;;
26838;SDS011;40088;51.214;6.786;2023-11-19T04:09:30;16.73;;;8.60;;
26838;SDS011;40088;51.214;6.786;2023-11-19T04:19:30;15.45;;;7.45;;
26838;SDS011;40088;51.214;6.786;2023-11-19T04:29:32;18.20;;;6.80;;
26838;SDS011;40088;51.214;6.786;2023-11-19T04:39:32;16.67;;;8.80;;
26838;SDS011;40088;51.214;6.786;2023-11-19T04:49:33;16.70;;;7.93;;
26838;SDS011;40088;51.214;6.786;2023-11-19T04:59:34;20.20;;;10.40;;
26838;SDS011;40088;51.214;6.786;2023-11-19T05:09:34;15.60;;;8.10;;
26838;SDS011;40088;51.214;6.786;2023-11-19T05:19:34;17.13;;;7.93;;
26838;SDS011;40088;51.214;6.786;2023-11-19T05:29:34;16.25;;;8.27;;
26838;SDS011;40088;51.214;6.786;2023-11-19T05:39:35;21.90;;;9.43;;
26838;SDS011;40088;51.214;6.786;2023-11-19T05:49:35;18.48;;;7.20;;
26838;SDS011;40088;51.214;6.786;2023-11-19T05:59:35;22.05;;;10.02;;
26838;SDS011;40088;51.214;6.786;2023-11-19T06:09:36;19.87;;;9.90;;
26838;SDS011;40088;51.214;6.786;2023-11-19T06:19:37;17.92;;;8.52;;
26838;SDS011;40088;51.214;6.786;2023-11-19T06:29:38;19.83;;;10.35;;
26838;SDS011;40088;51.214;6.786;2023-11-19T06:39:41;14.43;;;7.03;;
26838;SDS011;40088;51.214;6.786;2023-11-19T06:49:43;17.38;;;8.02;;
26838;SDS011;40088;51.214;6.786;2023-11-19T06:59:44;18.87;;;7.13;;
26838;SDS011;40088;51.214;6.786;2023-11-19T07:09:44;21.65;;;8.93;;
26838;SDS011;40088;51.214;6.786;2023-11-19T07:19:44;18.95;;;8.60;;
26838;SDS011;40088;51.214;6.786;2023-11-19T07:29:45;26.27;;;11.63;;
26838;SDS011;40088;51.214;6.786;2023-11-19T07:39:46;15.98;;;5.95;;
26838;SDS011;40088;51.214;6.786;2023-11-19T07:49:46;22.52;;;10.30;;
26838;SDS011;40088;51.214;6.786;2023-11-19T07:59:46;26.15;;;10.55;;
26838;SDS011;40088;51.214;6.786;2023-11-19T08:09:47;22.63;;;7.22;;
26838;SDS011;40088;51.214;6.786;2023-11-19T08:19:47;21.13;;;10.10;;
26838;SDS011;40088;51.214;6.786;2023-11-19T08:29:48;20.60;;;9.15;;
26838;SDS011;40088;51.214;6.786;2023-11-19T08:39:48;15.57;;;7.90;;
26838;SDS011;40088;51.214;6.786;2023-11-19T08:49:52;26.27;;;11.45;;
26838;SDS011;40088;51.214;6.786;2023-11-19T08:59:53;17.55;;;7.03;;
26838;SDS011;40088;51.214;6.786;2023-11-19T09:09:53;19.30;;;10.05;;
26838;SDS011;40088;51.214;6.786;2023-11-19T09:19:54;21.65;;;8.88;;
26838;SDS011;40088;51.214;6.786;2023-11-19T09:29:54;19.10;;;8.52;;
26838;SDS011;40088;51.214;6.786;2023-11-19T09:39:57;19.02;;;7.63;;
26838;SDS011;40088;51.214;6.786;2023-11-19T09:49:57;16.40;;;6.75;;
26838;SDS011;40088;51.214;6.786;2023-11-19T09:59:58;20.07;;;8.27;;
26838;SDS011;40088;51.214;6.786;2023-11-19T10:09:59;32.97;;;13.07;;
26838;SDS011;40088;51.214;6.786;2023-11-19T10:20:01;17.40;;;7.53;;
26838;SDS011;40088;51.214;6.786;2023-11-19T10:30:02;20.65;;;8.88;;
26838;SDS011;40088;51.214;6.786;2023-11-19T10:40:02;25.23;;;10.35;;
26838;SDS011;40088;51.214;6.786;2023-11-19T10:50:05;23.53;;;11.30;;
26838;SDS011;40088;51.214;6.786;2023-11-19T11:00:06;27.25;;;9.82;;
26838;SDS011;40088;51.214;6.786;2023-11-19T11:10:12;23.50;;;10.38;;
26838;SDS011;40088;51.214;6.786;2023-11-19T11:20:13;32.17;;;18.03;;
26838;SDS011;40088;51.214;6.786;2023-11-19T11:30:18;23.42;;;10.45;;
26838;SDS011;40088;51.214;6.786;2023-11-19T11:40:29;20.27;;;7.57;;
26838;SDS011;40088;51.214;6.786;2023-11-19T11:50:29;27.30;;;12.23;;
26838;SDS011;40088;51.214;6.786;2023-11-19T12:00:36;19.00;;;8.05;;
26838;SDS011;40088;51.214;6.786;2023-11-19T12:10:43;21.92;;;9.68;;
26838;SDS011;40088;51.214;6.786;2023-11-19T12:20:45;20.98;;;9.02;;
26838;SDS011;40088;51.214;6.786;2023-11-19T12:30:45;18.35;;;7.88;;
26838;SDS011;40088;51.214;6.786;2023-11-19T12:40:46;17.77;;;6.88;;
26838;SDS011;40088;51.214;6.786;2023-11-19T12:50:50;20.33;;;6.70;;
26838;SDS011;40088;51.214;6.786;2023-11-19T13:00:58;16.55;;;8.80;;
26838;SDS011;40088;51.214;6.786;2023-11-19T13:11:03;27.13;;;15.43;;
26838;SDS011;40088;51.214;6.786;2023-11-19T13:21:03;21.00;;;10.02;;
26838;SDS011;40088;51.214;6.786;2023-11-19T13:31:05;17.50;;;8.60;;
26838;SDS011;40088;51.214;6.786;2023-11-19T13:41:06;28.20;;;15.27;;
26838;SDS011;40088;51.214;6.786;2023-11-19T13:51:06;18.67;;;7.80;;
26838;SDS011;40088;51.214;6.786;2023-11-19T14:01:07;18.55;;;8.30;;
26838;SDS011;40088;51.214;6.786;2023-11-19T14:11:07;27.05;;;14.35;;
26838;SDS011;40088;51.214;6.786;2023-11-19T14:21:07;22.70;;;11.45;;
26838;SDS011;40088;51.214;6.786;2023-11-19T14:31:08;21.48;;;8.35;;
26838;SDS011;40088;51.214;6.786;2023-11-19T14:41:08;21.60;;;11.98;;
26838;SDS011;40088;51.214;6.786;2023-11-19T14:51:08;17.05;;;9.00;;
26838;SDS011;40088;51.214;6.786;2023-11-19T15:01:12;23.50;;;12.07;;
26838;SDS011;40088;51.214;6.786;2023-11-19T15:11:13;17.13;;;8.88;;
26838;SDS011;40088;51.214;6.786;2023-11-19T15:21:13;19.30;;;8.50;;
26838;SDS011;40088;51.214;6.786;2023-11-19T15:31:14;22.23;;;9.63;;
26838;SDS011;40088;51.214;6.786;2023-11-19T15:41:16;22.38;;;12.57;;
26838;SDS011;40088;51.214;6.786;2023-11-19T15:51:17;24.25;;;15.75;;
26838;SDS011;40088;51.214;6.786;2023-11-19T16:01:17;19.13;;;10.63;;
26838;SDS011;40088;51.214;6.786;2023-11-19T16:11:18;21.70;;;13.18;;
26838;SDS011;40088;51.214;6.786;2023-11-19T16:21:18;21.00;;;11.10;;
26838;SDS011;40088;51.214;6.786;2023-11-19T16:31:18;20.30;;;9.55;;
26838;SDS011;40088;51.214;6.786;2023-11-19T16:41:19;22.83;;;11.52;;
26838;SDS011;40088;51.214;6.786;2023-11-19T16:51:21;27.65;;;19.77;;
26838;SDS011;40088;51.214;6.786;2023-11-19T17:01:22;17.85;;;7.70;;
26838;SDS011;40088;51.214;6.786;2023-11-19T17:11:22;16.92;;;9.18;;
26838;SDS011;40088;51.214;6.786;2023-11-19T17:21:23;23.38;;;12.52;;
26838;SDS011;40088;51.214;6.786;2023-11-19T17:31:23;16.27;;;6.85;;
26838;SDS011;40088;51.214;6.786;2023-11-19T17:41:23;25.17;;;14.02;;
26838;SDS011;40088;51.214;6.786;2023-11-19T17:51:24;16.70;;;8.52;;
26838;SDS011;40088;51.214;6.786;2023-11-19T18:01:24;22.83;;;12.93;;
26838;SDS011;40088;51.214;6.786;2023-11-19T18:11:25;23.45;;;10.40;;
26838;SDS011;40088;51.214;6.786;2023-11-19T18:21:25;22.13;;;10.35;;
26838;SDS011;40088;51.214;6.786;2023-11-19T18:31:26;21.80;;;9.95;;
26838;SDS011;40088;51.214;6.786;2023-11-19T18:41:26;18.30;;;8.55;;
26838;SDS011;40088;51.214;6.786;2023-11-19T18:51:26;17.90;;;8.63;;
26838;SDS011;40088;51.214;6.786;2023-11-19T19:01:27;18.95;;;9.43;;
26838;SDS011;40088;51.214;6.786;2023-11-19T19:11:29;23.20;;;13.63;;
26838;SDS011;40088;51.214;6.786;2023-11-19T19:21:30;22.63;;;12.25;;
26838;SDS011;40088;51.214;6.786;2023-11-19T19:31:31;20.90;;;10.75;;
26838;SDS011;40088;51.214;6.786;2023-11-19T19:41:31;19.98;;;11.85;;
26838;SDS011;40088;51.214;6.786;2023-11-19T19:51:32;23.70;;;13.13;;
26838;SDS011;40088;51.214;6.786;2023-11-19T20:01:32;18.88;;;10.23;;
26838;SDS011;40088;51.214;6.786;2023-11-19T20:11:32;20.58;;;10.40;;
26838;SDS011;40088;51.214;6.786;2023-11-19T20:21:33;29.92;;;13.65;;
26838;SDS011;40088;51.214;6.786;2023-11-19T20:31:39;22.40;;;11.55;;
26838;SDS011;40088;51.214;6.786;2023-11-19T20:41:41;17.35;;;9.82;;
26838;SDS011;40088;51.214;6.786;2023-11-19T20:51:42;16.55;;;6.63;;
26838;SDS011;40088;51.214;6.786;2023-11-19T21:01:43;10.27;;;6.25;;
26838;SDS011;40088;51.214;6.786;2023-11-19T21:11:43;12.50;;;8.27;;
26838;SDS011;40088;51.214;6.786;2023-11-19T21:21:43;20.60;;;11.30;;
26838;SDS011;40088;51.214;6.786;2023-11-19T21:31:44;14.02;;;5.60;;
26838;SDS011;40088;51.214;6.786;2023-11-19T21:41:44;14.30;;;7.00;;
26838;SDS011;40088;51.214;6.786;2023-11-19T21:51:44;17.08;;;7.30;;
26838;SDS011;40088;51.214;6.786;2023-11-19T22:01:45;16.83;;;9.50;;
26838;SDS011;40088;51.214;6.786;2023-11-19T22:11:45;14.15;;;8.55;;
26838;SDS011;40088;51.214;6.786;2023-11-19T22:21:46;14.73;;;9.20;;
26838;SDS011;40088;51.214;6.786;2023-11-19T22:31:47;12.63;;;5.68;;
26838;SDS011;40088;51.214;6.786;2023-11-19T22:41:47;16.23;;;8.10;;
26838;SDS011;40088;51.214;6.786;2023-11-19T22:51:48;14.70;;;7.75;;
26838;SDS011;40088;51.214;6.786;2023-11-19T23:01:48;13.95;;;8.20;;
26838;SDS011;40088;51.214;6.786;2023-11-19T23:11:48;17.73;;;9.38;;
26838;SDS011;40088;51.214;6.786;2023-11-19T23:21:49;10.45;;;7.15;;
26838;SDS011;40088;51.214;6.786;2023-11-19T23:31:49;17.70;;;9.00;;
26838;SDS011;40088;51.214;6.786;2023-11-19T23:41:49;12.80;;;7.70;;
26838;SDS011;40088;51.214;6.786;2023-11-19T23:51:50;17.47;;;9.93;;
